createdAt,value
2022-12-19T00:01:02.131Z,54.70
2022-12-19T00:03:34.395Z,54.90
2022-12-19T00:06:07.577Z,49.90
2022-12-19T00:08:53.912Z,46.90
2022-12-19T00:11:27.136Z,48.90
2022-12-19T00:14:00.302Z,53.90
2022-12-19T00:16:32.892Z,52.50
2022-12-19T00:19:40.173Z,49.70
2022-12-19T00:22:12.578Z,52.80
2022-12-19T00:24:44.650Z,51.70
2022-12-19T00:27:16.776Z,51.00
2022-12-19T00:29:49.086Z,57.70
2022-12-19T00:32:21.585Z,56.30
2022-12-19T00:34:53.710Z,62.50
2022-12-19T00:37:25.870Z,64.10
2022-12-19T00:39:58.288Z,65.50
2022-12-19T00:42:30.867Z,64.00
2022-12-19T00:45:03.044Z,64.60
2022-12-19T00:47:36.122Z,60.40
2022-12-19T00:50:14.303Z,61.90
2022-12-19T00:52:46.577Z,59.10
2022-12-19T00:55:19.458Z,58.10
2022-12-19T00:57:54.594Z,64.30
2022-12-19T01:00:30.353Z,65.40
2022-12-19T01:03:02.577Z,61.50
2022-12-19T01:05:38.355Z,61.30
2022-12-19T01:08:14.384Z,58.80
2022-12-19T01:10:53.875Z,58.50
2022-12-19T01:13:41.213Z,58.40
2022-12-19T01:16:15.760Z,61.50
2022-12-19T01:18:51.855Z,57.00
2022-12-19T01:21:26.821Z,55.80
2022-12-19T01:23:59.233Z,56.70
2022-12-19T01:26:31.741Z,57.40
2022-12-19T01:29:05.547Z,57.40
2022-12-19T01:31:37.750Z,58.60
2022-12-19T01:34:12.675Z,58.10
2022-12-19T01:36:45.637Z,59.60
2022-12-19T01:39:17.792Z,60.60
2022-12-19T01:41:49.903Z,59.70
2022-12-19T01:44:25.383Z,62.50
2022-12-19T01:47:17.390Z,62.60
2022-12-19T01:49:49.852Z,61.60
2022-12-19T01:52:23.523Z,61.60
2022-12-19T01:54:56.492Z,63.10
2022-12-19T01:57:32.115Z,63.30
2022-12-19T02:00:30.585Z,65.20
2022-12-19T02:03:12.805Z,64.50
2022-12-19T02:05:49.411Z,66.50
2022-12-19T02:08:22.550Z,60.30
2022-12-19T02:10:55.269Z,58.90
2022-12-19T02:13:28.591Z,61.00
2022-12-19T02:16:12.206Z,55.80
2022-12-19T02:18:56.095Z,57.50
2022-12-19T02:22:05.202Z,57.90
2022-12-19T02:25:14.008Z,54.50
2022-12-19T02:28:27.132Z,54.80
2022-12-19T02:37:41.937Z,60.40
2022-12-19T02:40:18.805Z,58.00
2022-12-19T02:42:59.090Z,55.00
2022-12-19T02:45:36.824Z,56.80
2022-12-19T02:48:12.291Z,55.40
2022-12-19T02:50:50.123Z,53.10
2022-12-19T02:53:23.962Z,52.80
2022-12-19T02:56:19.354Z,51.10
2022-12-19T02:59:07.883Z,54.20
2022-12-19T03:01:47.141Z,52.80
2022-12-19T03:04:30.395Z,54.50
2022-12-19T03:07:14.316Z,51.80
2022-12-19T03:09:52.047Z,50.50
2022-12-19T03:12:30.956Z,50.60
2022-12-19T03:15:05.207Z,48.20
2022-12-19T03:17:39.361Z,47.30
2022-12-19T03:20:25.359Z,48.70
2022-12-19T03:22:57.449Z,48.40
2022-12-19T03:25:32.050Z,52.90
2022-12-19T03:28:08.871Z,47.00
2022-12-19T03:30:43.930Z,48.50
2022-12-19T03:33:22.474Z,47.60
2022-12-19T03:35:59.222Z,51.50
2022-12-19T03:38:32.485Z,55.40
2022-12-19T03:41:11.726Z,54.60
2022-12-19T03:43:47.214Z,58.70
2022-12-19T03:46:27.662Z,58.20
2022-12-19T03:49:00.243Z,59.50
2022-12-19T03:51:41.961Z,55.20
2022-12-19T03:54:21.027Z,67.40
2022-12-19T03:57:00.679Z,54.60
2022-12-19T03:59:41.509Z,46.00
2022-12-19T04:02:16.771Z,47.30
2022-12-19T04:04:53.527Z,44.20
2022-12-19T04:07:26.664Z,43.70
2022-12-19T04:10:01.665Z,44.30
2022-12-19T04:12:38.645Z,47.30
2022-12-19T04:15:12.458Z,43.30
2022-12-19T04:17:49.680Z,43.10
2022-12-19T04:20:26.065Z,41.80
2022-12-19T04:23:05.091Z,44.50
2022-12-19T04:25:42.577Z,42.80
2022-12-19T04:28:20.136Z,44.50
2022-12-19T04:30:53.620Z,45.10
2022-12-19T04:33:26.405Z,48.50
2022-12-19T04:35:58.626Z,46.60
2022-12-19T04:38:31.044Z,47.80
2022-12-19T04:41:03.241Z,47.90
2022-12-19T04:43:35.391Z,46.80
2022-12-19T04:46:07.780Z,47.70
2022-12-19T04:48:40.352Z,44.60
2022-12-19T04:51:12.850Z,45.30
2022-12-19T04:53:44.945Z,51.70
2022-12-19T04:56:17.793Z,47.90
2022-12-19T04:58:49.938Z,46.30
2022-12-19T05:04:08.496Z,46.60
2022-12-19T05:06:41.139Z,45.80
2022-12-19T05:09:14.028Z,49.60
2022-12-19T05:11:46.211Z,49.50
2022-12-19T05:14:18.315Z,51.30
2022-12-19T05:17:14.283Z,49.00
2022-12-19T05:23:46.545Z,48.40
2022-12-19T05:26:34.006Z,49.00
2022-12-19T05:29:17.283Z,55.50
2022-12-19T05:32:44.482Z,78.10
2022-12-19T05:35:39.726Z,79.70
2022-12-19T05:39:45.339Z,80.90
2022-12-19T05:42:17.452Z,170.20
2022-12-19T05:44:52.464Z,326.80
2022-12-19T05:47:24.615Z,228.10
2022-12-19T05:49:56.885Z,89.60
2022-12-19T05:52:29.115Z,112.60
2022-12-19T05:55:01.770Z,65.50
2022-12-19T05:57:34.405Z,52.00
2022-12-19T06:00:10.275Z,54.10
2022-12-19T06:02:53.383Z,53.20
2022-12-19T06:08:57.384Z,53.90
2022-12-19T06:11:30.243Z,54.50
2022-12-19T06:14:02.339Z,51.40
2022-12-19T06:16:34.539Z,50.90
2022-12-19T06:19:06.919Z,49.30
2022-12-19T06:21:47.869Z,48.10
2022-12-19T06:24:21.503Z,48.30
2022-12-19T06:26:53.745Z,46.40
2022-12-19T06:29:26.559Z,45.00
2022-12-19T06:31:59.146Z,48.60
2022-12-19T06:35:03.634Z,44.60
2022-12-19T06:37:24.560Z,45.20
2022-12-19T06:39:56.863Z,45.30
2022-12-19T06:42:29.163Z,45.80
2022-12-19T06:45:01.538Z,44.60
2022-12-19T06:47:34.793Z,48.90
2022-12-19T06:50:07.774Z,47.30
2022-12-19T06:52:40.003Z,44.90
2022-12-19T06:55:12.895Z,48.00
2022-12-19T06:57:46.594Z,45.00
2022-12-19T07:00:20.564Z,48.70
2022-12-19T07:03:01.174Z,48.20
2022-12-19T07:05:33.599Z,44.90
2022-12-19T07:08:06.131Z,45.30
2022-12-19T07:13:28.921Z,45.70
2022-12-19T07:16:05.229Z,44.40
2022-12-19T07:18:41.101Z,50.60
2022-12-19T07:21:13.681Z,48.40
2022-12-19T07:23:47.094Z,57.50
2022-12-19T07:26:19.265Z,53.10
2022-12-19T07:28:51.585Z,47.50
2022-12-19T07:31:43.421Z,47.40
2022-12-19T07:34:16.170Z,52.80
2022-12-19T07:40:12.430Z,50.60
2022-12-19T07:42:46.964Z,50.50
2022-12-19T07:45:20.278Z,49.30
2022-12-19T07:47:55.222Z,48.60
2022-12-19T07:50:27.352Z,45.10
2022-12-19T07:53:00.424Z,46.30
2022-12-19T07:55:33.683Z,45.60
2022-12-19T07:58:05.949Z,49.30
2022-12-19T08:00:40.480Z,48.00
2022-12-19T08:03:15.588Z,52.10
2022-12-19T08:05:54.351Z,50.60
2022-12-19T08:08:30.439Z,58.50
2022-12-19T08:11:11.736Z,58.30
2022-12-19T08:13:46.705Z,55.90
2022-12-19T08:16:22.067Z,48.50
2022-12-19T08:18:55.894Z,92.00
2022-12-19T08:21:28.246Z,145.20
2022-12-19T08:24:09.322Z,63.70
2022-12-19T08:26:47.440Z,55.70
2022-12-19T08:29:20.202Z,57.30
2022-12-19T08:31:52.400Z,58.40
2022-12-19T08:34:45.115Z,47.40
2022-12-19T08:37:57.601Z,50.20
2022-12-19T08:40:53.096Z,87.90
2022-12-19T08:43:27.627Z,136.10
2022-12-19T08:45:59.927Z,141.00
2022-12-19T08:48:32.675Z,159.40
2022-12-19T08:51:08.238Z,87.70
2022-12-19T08:53:43.371Z,114.90
2022-12-19T08:56:19.696Z,56.90
2022-12-19T08:58:53.680Z,48.20
2022-12-19T09:01:26.061Z,49.00
2022-12-19T09:05:58.068Z,43.60
2022-12-19T09:06:53.250Z,44.90
2022-12-19T09:09:25.579Z,49.60
2022-12-19T09:11:57.847Z,47.90
2022-12-19T09:14:33.459Z,49.70
2022-12-19T09:17:05.774Z,46.20
2022-12-19T09:19:38.053Z,47.00
2022-12-19T09:22:12.033Z,48.50
2022-12-19T09:24:44.276Z,51.50
2022-12-19T09:27:16.717Z,43.70
2022-12-19T09:29:48.913Z,43.80
2022-12-19T09:32:21.351Z,45.50
2022-12-19T09:34:53.647Z,46.20
2022-12-19T09:37:25.896Z,44.60
2022-12-19T09:39:59.335Z,45.00
2022-12-19T09:42:46.480Z,47.40
2022-12-19T09:45:34.794Z,48.90
2022-12-19T09:48:14.130Z,48.40
2022-12-19T09:51:09.312Z,46.90
2022-12-19T09:53:56.806Z,44.40
2022-12-19T09:56:37.599Z,47.20
2022-12-19T09:59:28.470Z,50.70
2022-12-19T10:02:38.830Z,44.30
2022-12-19T10:05:36.542Z,46.30
2022-12-19T10:08:19.096Z,54.00
2022-12-19T10:12:40.854Z,56.40
2022-12-19T10:14:13.661Z,49.90
2022-12-19T10:17:23.163Z,58.80
2022-12-19T10:20:04.615Z,52.90
2022-12-19T10:22:44.667Z,54.90
2022-12-19T10:25:38.711Z,81.80
2022-12-19T10:28:25.708Z,68.20
2022-12-19T10:31:18.880Z,65.70
2022-12-19T10:33:59.441Z,61.20
2022-12-19T10:37:13.065Z,62.80
2022-12-19T10:39:35.264Z,59.10
2022-12-19T10:42:14.751Z,77.50
2022-12-19T10:44:52.047Z,61.30
2022-12-19T10:47:24.757Z,90.30
2022-12-19T10:49:57.146Z,58.60
2022-12-19T10:52:53.440Z,57.00
2022-12-19T10:55:47.484Z,49.70
2022-12-19T10:58:28.124Z,53.10
2022-12-19T11:01:06.506Z,47.80
2022-12-19T11:03:40.532Z,53.60
2022-12-19T11:06:54.922Z,50.50
2022-12-19T11:09:30.828Z,46.50
2022-12-19T11:14:33.929Z,46.30
2022-12-19T11:21:03.261Z,40.90
2022-12-19T11:27:20.740Z,49.80
2022-12-19T11:30:45.721Z,48.70
2022-12-19T11:30:46.076Z,45.80
2022-12-19T11:32:48.420Z,49.90
2022-12-19T11:35:24.657Z,48.40
2022-12-19T11:37:59.382Z,45.40
2022-12-19T11:40:40.427Z,44.50
2022-12-19T11:46:34.584Z,45.80
2022-12-19T11:49:13.413Z,50.20
2022-12-19T11:51:56.679Z,44.60
2022-12-19T11:54:32.914Z,140.10
2022-12-19T11:57:05.120Z,264.50
2022-12-19T11:59:40.061Z,74.40
2022-12-19T12:02:41.632Z,49.00
2022-12-19T12:05:43.356Z,53.90
2022-12-19T12:09:33.675Z,62.90
2022-12-19T12:15:13.786Z,65.10
2022-12-19T12:27:17.374Z,68.20
2022-12-19T12:31:11.599Z,53.80
2022-12-19T12:31:16.107Z,65.10
2022-12-19T12:31:28.655Z,70.70
2022-12-19T12:31:46.050Z,56.00
2022-12-19T12:32:04.206Z,52.80
2022-12-19T12:35:30.672Z,81.90
2022-12-19T12:39:24.350Z,48.60
2022-12-19T12:42:12.854Z,48.90
2022-12-19T12:45:18.092Z,45.10
2022-12-19T12:47:55.682Z,50.90
2022-12-19T12:50:32.703Z,50.80
2022-12-19T12:53:10.670Z,49.60
2022-12-19T12:55:44.530Z,49.80
2022-12-19T12:58:54.349Z,52.70
2022-12-19T13:01:34.805Z,49.20
2022-12-19T13:04:21.747Z,52.30
2022-12-19T13:07:28.368Z,48.80
2022-12-19T13:10:41.179Z,52.60
2022-12-19T13:13:22.572Z,49.40
2022-12-19T13:15:59.816Z,51.80
2022-12-19T13:18:37.953Z,50.80
2022-12-19T13:21:12.114Z,53.10
2022-12-19T13:23:50.108Z,57.60
2022-12-19T13:26:55.032Z,66.60
2022-12-19T13:29:57.459Z,51.90
2022-12-19T13:32:55.404Z,51.80
2022-12-19T13:39:02.482Z,49.70
2022-12-19T13:39:59.029Z,51.90
2022-12-19T13:42:03.241Z,50.20
2022-12-19T13:44:43.543Z,48.20
2022-12-19T13:47:23.446Z,48.30
2022-12-19T13:49:56.817Z,50.20
2022-12-19T13:52:29.211Z,50.90
2022-12-19T13:55:01.809Z,48.10
2022-12-19T13:57:39.622Z,48.60
2022-12-19T14:00:20.706Z,50.00
2022-12-19T14:02:56.336Z,55.60
2022-12-19T14:06:15.965Z,71.30
2022-12-19T14:08:33.662Z,51.80
2022-12-19T14:11:39.889Z,55.10
2022-12-19T14:14:28.222Z,52.80
2022-12-19T14:17:09.492Z,50.30
2022-12-19T14:19:44.793Z,50.80
2022-12-19T14:22:26.715Z,52.40
2022-12-19T14:25:49.299Z,52.00
2022-12-19T14:28:25.803Z,50.50
2022-12-19T14:30:59.828Z,53.50
2022-12-19T14:33:43.419Z,53.10
2022-12-19T14:36:29.772Z,54.00
2022-12-19T14:39:26.693Z,58.70
2022-12-19T14:42:49.340Z,59.50
2022-12-19T14:52:34.940Z,63.90
2022-12-19T14:54:21.440Z,155.40
2022-12-19T14:54:35.861Z,81.20
2022-12-19T14:58:50.681Z,123.00
2022-12-19T15:01:07.124Z,90.60
2022-12-19T15:03:30.752Z,79.20
2022-12-19T15:06:31.550Z,68.00
2022-12-19T15:11:05.182Z,61.90
2022-12-19T15:14:46.691Z,61.90
2022-12-19T15:15:27.378Z,59.20
2022-12-19T15:18:25.621Z,63.40
2022-12-19T15:21:04.104Z,56.40
2022-12-19T15:23:36.605Z,55.50
2022-12-19T15:26:15.804Z,53.10
2022-12-19T15:28:50.963Z,57.10
2022-12-19T15:31:38.670Z,61.40
2022-12-19T15:34:40.073Z,53.10
2022-12-19T15:37:15.887Z,57.20
2022-12-19T15:39:48.506Z,54.80
2022-12-19T15:42:27.237Z,58.70
2022-12-19T15:45:01.332Z,62.40
2022-12-19T15:47:36.049Z,56.80
2022-12-19T15:50:18.957Z,59.60
2022-12-19T15:52:51.380Z,55.20
2022-12-19T15:55:28.356Z,145.20
2022-12-19T15:58:05.195Z,117.30
2022-12-19T16:00:39.917Z,67.80
2022-12-19T16:03:25.117Z,57.60
2022-12-19T16:05:59.062Z,161.60
2022-12-19T16:08:31.827Z,199.20
2022-12-19T16:11:03.962Z,119.50
2022-12-19T16:13:37.503Z,102.40
2022-12-19T16:16:15.738Z,93.50
2022-12-19T16:19:42.621Z,89.80
2022-12-19T16:22:20.769Z,95.80
2022-12-19T16:24:59.257Z,152.40
2022-12-19T16:27:35.011Z,141.30
2022-12-19T16:31:01.735Z,86.50
2022-12-19T16:33:34.282Z,71.70
2022-12-19T16:36:07.635Z,69.10
2022-12-19T16:38:40.042Z,59.70
2022-12-19T16:41:21.623Z,79.70
2022-12-19T16:43:56.231Z,102.60
2022-12-19T16:46:31.106Z,142.40
2022-12-19T16:49:12.052Z,147.70
2022-12-19T16:51:47.819Z,77.60
2022-12-19T16:54:21.215Z,121.90
2022-12-19T17:09:25.801Z,69.80
2022-12-19T17:12:02.525Z,71.90
2022-12-19T17:14:38.919Z,70.60
2022-12-19T17:17:16.597Z,116.60
2022-12-19T17:19:56.157Z,93.20
2022-12-19T17:23:33.588Z,82.70
2022-12-19T17:26:23.998Z,64.20
2022-12-19T17:29:28.930Z,75.20
2022-12-19T17:32:01.365Z,76.80
2022-12-19T17:34:34.965Z,67.40
2022-12-19T17:37:10.181Z,64.90
2022-12-19T17:39:43.333Z,70.80
2022-12-19T17:42:22.563Z,63.80
2022-12-19T17:44:59.611Z,71.10
2022-12-19T17:47:32.079Z,187.10
2022-12-19T17:50:23.883Z,84.50
2022-12-19T17:52:58.199Z,64.40
2022-12-19T17:55:33.456Z,65.90
2022-12-19T17:58:09.712Z,97.10
2022-12-19T18:00:43.170Z,74.70
2022-12-19T18:03:24.376Z,104.30
2022-12-19T18:05:59.258Z,102.20
2022-12-19T18:08:33.935Z,95.00
2022-12-19T18:11:21.274Z,117.30
2022-12-19T18:13:55.523Z,67.00
2022-12-19T18:16:31.126Z,57.50
2022-12-19T18:19:06.324Z,59.20
2022-12-19T18:21:39.181Z,58.60
2022-12-19T18:24:14.859Z,59.30
2022-12-19T18:26:47.214Z,65.90
2022-12-19T18:29:19.348Z,67.40
2022-12-19T18:31:51.656Z,67.60
2022-12-19T18:34:27.047Z,63.50
2022-12-19T18:36:59.382Z,63.30
2022-12-19T18:39:58.369Z,64.20
2022-12-19T18:42:33.529Z,103.90
2022-12-19T18:45:06.343Z,67.60
2022-12-19T18:47:39.008Z,91.00
2022-12-19T18:50:18.803Z,67.00
2022-12-19T18:52:52.115Z,56.70
2022-12-19T18:55:28.377Z,55.40
2022-12-19T18:58:00.718Z,60.70
2022-12-19T19:00:36.641Z,61.00
2022-12-19T19:03:14.349Z,62.90
2022-12-19T19:05:47.627Z,62.30
2022-12-19T19:08:23.760Z,55.90
2022-12-19T19:11:25.411Z,57.10
2022-12-19T19:13:57.633Z,58.90
2022-12-19T19:16:30.850Z,68.90
2022-12-19T19:19:03.373Z,72.70
2022-12-19T19:21:37.194Z,69.80
2022-12-19T19:24:13.401Z,86.70
2022-12-19T19:26:46.053Z,91.20
2022-12-19T19:29:19.773Z,62.40
2022-12-19T19:31:54.793Z,72.10
2022-12-19T19:34:30.793Z,78.50
2022-12-19T19:37:11.545Z,74.40
2022-12-19T19:42:48.509Z,81.70
2022-12-19T19:45:20.961Z,100.40
2022-12-19T19:48:02.499Z,63.70
2022-12-19T19:50:35.287Z,59.20
2022-12-19T19:53:07.890Z,61.60
2022-12-19T19:55:40.147Z,62.10
2022-12-19T19:58:12.464Z,62.60
2022-12-19T20:01:19.090Z,58.10
2022-12-19T20:03:55.876Z,53.30
2022-12-19T20:06:28.275Z,55.90
2022-12-19T20:09:00.575Z,52.90
2022-12-19T20:11:33.767Z,55.60
2022-12-19T20:14:06.040Z,55.10
2022-12-19T20:16:38.451Z,60.10
2022-12-19T20:19:13.152Z,66.90
2022-12-19T20:21:46.111Z,61.20
2022-12-19T20:24:20.730Z,60.30
2022-12-19T20:26:52.956Z,56.20
2022-12-19T20:29:25.689Z,54.00
2022-12-19T20:31:58.079Z,56.80
2022-12-19T20:34:30.481Z,56.50
2022-12-19T20:37:02.635Z,56.70
2022-12-19T20:39:35.024Z,57.70
2022-12-19T20:42:09.567Z,58.90
2022-12-19T20:44:45.044Z,61.70
2022-12-19T20:47:17.330Z,61.20
2022-12-19T20:49:49.491Z,57.50
2022-12-19T20:52:27.649Z,54.50
2022-12-19T20:55:02.293Z,59.20
2022-12-19T20:57:34.948Z,56.40
2022-12-19T21:00:18.959Z,59.40
2022-12-19T21:03:40.318Z,58.50
2022-12-19T21:06:15.069Z,58.90
2022-12-19T21:08:48.010Z,62.30
2022-12-19T21:11:20.311Z,60.80
2022-12-19T21:13:52.686Z,60.90
2022-12-19T21:16:25.406Z,59.40
2022-12-19T21:18:57.814Z,60.20
2022-12-19T21:21:30.366Z,60.00
2022-12-19T21:24:04.739Z,56.50
2022-12-19T21:26:36.907Z,55.90
2022-12-19T21:29:09.091Z,57.30
2022-12-19T21:31:41.323Z,58.30
2022-12-19T21:34:14.129Z,56.80
2022-12-19T21:36:46.321Z,63.40
2022-12-19T21:39:21.020Z,57.60
2022-12-19T21:42:00.468Z,53.60
2022-12-19T21:44:34.575Z,56.20
2022-12-19T21:47:07.072Z,54.30
2022-12-19T21:49:42.186Z,55.50
2022-12-19T21:52:14.557Z,52.80
2022-12-19T21:54:46.715Z,55.80
2022-12-19T21:57:18.924Z,57.40
2022-12-19T22:00:06.031Z,60.90
2022-12-19T22:02:38.529Z,63.70
2022-12-19T22:05:13.121Z,62.10
2022-12-19T22:07:52.119Z,64.70
2022-12-19T22:10:27.670Z,57.60
2022-12-19T22:12:59.872Z,59.60
2022-12-19T22:15:32.626Z,64.70
2022-12-19T22:18:09.172Z,61.10
2022-12-19T22:25:07.065Z,70.60
2022-12-19T22:27:39.413Z,69.30
2022-12-19T22:30:13.066Z,63.70
2022-12-19T22:32:45.227Z,69.50
2022-12-19T22:35:17.857Z,59.10
2022-12-19T22:37:50.151Z,57.60
2022-12-19T22:40:24.947Z,55.90
2022-12-19T22:42:57.312Z,57.90
2022-12-19T22:45:32.674Z,56.80
2022-12-19T22:48:05.202Z,61.10
2022-12-19T22:50:37.399Z,57.80
2022-12-19T22:53:12.734Z,57.20
2022-12-19T22:55:48.739Z,58.10
2022-12-19T22:58:30.237Z,56.50
2022-12-19T23:01:06.421Z,58.50
2022-12-19T23:03:41.012Z,58.60
2022-12-19T23:06:17.098Z,55.00
2022-12-19T23:08:49.759Z,60.70
2022-12-19T23:11:24.980Z,57.30
2022-12-19T23:13:57.397Z,52.90
2022-12-19T23:16:32.973Z,56.70
2022-12-19T23:19:05.314Z,57.00
2022-12-19T23:21:42.246Z,59.20
2022-12-19T23:24:15.156Z,63.30
2022-12-19T23:26:47.804Z,59.40
2022-12-19T23:29:20.245Z,58.20
2022-12-19T23:31:55.210Z,60.60
2022-12-19T23:34:27.399Z,59.40
2022-12-19T23:37:10.614Z,57.10
2022-12-19T23:39:46.502Z,55.10
2022-12-19T23:42:21.255Z,58.00
2022-12-19T23:44:53.563Z,56.90
2022-12-19T23:47:29.901Z,59.10
2022-12-19T23:50:02.098Z,55.90
2022-12-19T23:52:34.307Z,57.50
2022-12-19T23:55:10.574Z,54.40
2022-12-19T23:57:47.825Z,57.20
